createdAt,value
2022-07-26T00:02:24.557Z,26.60
2022-07-26T00:05:13.136Z,26.60
2022-07-26T00:08:11.529Z,26.60
2022-07-26T00:10:59.961Z,26.60
2022-07-26T00:13:55.640Z,26.50
2022-07-26T00:16:45.501Z,26.50
2022-07-26T00:19:34.108Z,26.40
2022-07-26T00:22:39.699Z,26.30
2022-07-26T00:25:28.345Z,26.20
2022-07-26T00:28:16.833Z,26.10
2022-07-26T00:31:05.438Z,26.00
2022-07-26T00:33:55.307Z,25.90
2022-07-26T00:36:44.408Z,25.80
2022-07-26T00:39:32.952Z,25.70
2022-07-26T00:42:22.062Z,25.60
2022-07-26T00:45:11.919Z,25.40
2022-07-26T00:48:00.367Z,25.30
2022-07-26T00:50:50.202Z,25.20
2022-07-26T00:53:38.677Z,25.10
2022-07-26T00:56:27.374Z,24.90
2022-07-26T00:59:15.896Z,24.80
2022-07-26T01:02:05.169Z,24.70
2022-07-26T01:04:53.759Z,24.50
2022-07-26T01:07:43.564Z,24.40
2022-07-26T01:10:32.227Z,24.30
2022-07-26T01:13:21.265Z,24.30
2022-07-26T01:16:10.092Z,24.20
2022-07-26T01:18:58.624Z,24.10
2022-07-26T01:21:48.510Z,24.00
2022-07-26T01:24:37.267Z,23.90
2022-07-26T01:27:28.538Z,23.90
2022-07-26T01:30:19.240Z,23.80
2022-07-26T01:33:07.751Z,23.70
2022-07-26T01:35:56.276Z,23.60
2022-07-26T01:38:46.237Z,23.50
2022-07-26T01:41:37.840Z,23.40
2022-07-26T01:44:27.006Z,23.30
2022-07-26T01:47:15.537Z,23.30
2022-07-26T01:50:04.244Z,23.20
2022-07-26T01:52:52.693Z,23.10
2022-07-26T01:55:42.497Z,23.00
2022-07-26T01:58:31.010Z,22.90
2022-07-26T02:01:38.409Z,22.90
2022-07-26T02:04:45.788Z,22.80
2022-07-26T02:07:42.786Z,22.80
2022-07-26T02:10:47.461Z,22.90
2022-07-26T02:13:38.861Z,22.70
2022-07-26T02:16:27.522Z,22.60
2022-07-26T02:19:16.167Z,22.60
2022-07-26T02:22:04.773Z,22.60
2022-07-26T02:24:53.357Z,22.60
2022-07-26T02:27:41.910Z,22.50
2022-07-26T02:30:31.806Z,22.40
2022-07-26T02:33:20.618Z,22.40
2022-07-26T02:36:09.700Z,22.40
2022-07-26T02:38:58.306Z,22.40
2022-07-26T02:41:47.023Z,22.40
2022-07-26T02:44:36.634Z,22.40
2022-07-26T02:47:26.551Z,22.40
2022-07-26T02:50:17.339Z,22.40
2022-07-26T02:53:05.919Z,22.40
2022-07-26T02:55:54.502Z,22.50
2022-07-26T02:58:43.067Z,22.40
2022-07-26T03:01:31.716Z,22.40
2022-07-26T03:04:21.633Z,22.40
2022-07-26T03:07:10.171Z,22.40
2022-07-26T03:09:58.666Z,22.40
2022-07-26T03:12:47.215Z,22.40
2022-07-26T03:15:35.936Z,22.30
2022-07-26T03:18:24.494Z,22.20
2022-07-26T03:21:14.347Z,22.20
2022-07-26T03:24:02.823Z,22.20
2022-07-26T03:26:51.373Z,22.10
2022-07-26T03:29:39.981Z,22.10
2022-07-26T03:32:28.564Z,22.10
2022-07-26T03:35:17.149Z,22.00
2022-07-26T03:38:07.015Z,22.00
2022-07-26T03:40:55.555Z,22.00
2022-07-26T03:43:44.104Z,22.00
2022-07-26T03:46:32.644Z,22.00
2022-07-26T03:49:21.196Z,22.00
2022-07-26T03:52:10.844Z,22.00
2022-07-26T03:55:00.692Z,22.00
2022-07-26T03:57:48.296Z,21.90
2022-07-26T04:00:36.898Z,21.90
2022-07-26T04:03:25.408Z,21.90
2022-07-26T04:06:14.769Z,21.90
2022-07-26T04:09:03.453Z,21.80
2022-07-26T04:11:55.958Z,21.80
2022-07-26T04:14:44.500Z,21.80
2022-07-26T04:17:38.765Z,21.80
2022-07-26T04:20:27.283Z,21.80
2022-07-26T04:23:15.833Z,21.80
2022-07-26T04:26:04.410Z,21.80
2022-07-26T04:28:54.414Z,21.80
2022-07-26T04:31:42.957Z,21.90
2022-07-26T04:34:31.450Z,21.90
2022-07-26T04:37:19.925Z,22.00
2022-07-26T04:40:09.550Z,22.00
2022-07-26T04:42:58.104Z,22.10
2022-07-26T04:45:48.156Z,22.20
2022-07-26T04:48:39.142Z,22.20
2022-07-26T04:51:27.805Z,22.30
2022-07-26T04:54:20.625Z,22.30
2022-07-26T04:57:09.209Z,22.40
2022-07-26T05:00:16.741Z,22.40
2022-07-26T05:03:07.777Z,22.50
2022-07-26T05:05:56.579Z,22.60
2022-07-26T05:08:45.674Z,22.70
2022-07-26T05:11:34.212Z,22.70
2022-07-26T05:14:22.811Z,22.80
2022-07-26T05:17:11.981Z,22.90
2022-07-26T05:20:03.438Z,22.90
2022-07-26T05:22:52.153Z,23.00
2022-07-26T05:25:41.522Z,23.10
2022-07-26T05:28:30.157Z,23.10
2022-07-26T05:31:18.680Z,23.20
2022-07-26T05:34:08.276Z,23.20
2022-07-26T05:36:58.292Z,23.20
2022-07-26T05:39:46.855Z,23.20
2022-07-26T05:42:35.354Z,23.20
2022-07-26T05:45:24.091Z,23.30
2022-07-26T05:48:12.539Z,23.30
2022-07-26T05:51:01.122Z,23.40
2022-07-26T05:53:50.917Z,23.50
2022-07-26T05:56:39.413Z,23.50
2022-07-26T05:59:28.075Z,23.50
2022-07-26T06:02:16.610Z,23.50
2022-07-26T06:05:05.862Z,23.50
2022-07-26T06:07:54.389Z,23.60
2022-07-26T06:10:44.183Z,23.70
2022-07-26T06:13:32.693Z,23.90
2022-07-26T06:16:21.193Z,24.20
2022-07-26T06:19:09.694Z,24.30
2022-07-26T06:21:58.171Z,24.40
2022-07-26T06:24:46.717Z,24.50
2022-07-26T06:27:36.550Z,24.50
2022-07-26T06:30:25.398Z,24.40
2022-07-26T06:33:14.073Z,24.40
2022-07-26T06:36:02.563Z,24.50
2022-07-26T06:38:51.202Z,24.80
2022-07-26T06:41:39.737Z,24.90
2022-07-26T06:44:29.697Z,25.20
2022-07-26T06:47:18.137Z,25.40
2022-07-26T06:50:08.127Z,25.60
2022-07-26T06:53:03.374Z,25.60
2022-07-26T06:55:58.382Z,25.60
2022-07-26T06:58:48.108Z,25.50
2022-07-26T07:01:58.244Z,25.30
2022-07-26T07:04:46.445Z,25.20
2022-07-26T07:07:36.913Z,25.10
2022-07-26T07:10:25.463Z,24.90
2022-07-26T07:13:14.022Z,24.90
2022-07-26T07:16:02.618Z,24.80
2022-07-26T07:18:52.497Z,24.70
2022-07-26T07:21:41.001Z,24.70
2022-07-26T07:24:29.519Z,24.60
2022-07-26T07:27:20.247Z,24.60
2022-07-26T07:30:10.999Z,24.60
2022-07-26T07:32:59.644Z,24.60
2022-07-26T07:35:49.468Z,24.70
2022-07-26T07:38:38.130Z,24.80
2022-07-26T07:41:34.211Z,24.90
2022-07-26T07:44:22.921Z,24.90
2022-07-26T07:47:11.441Z,25.10
2022-07-26T07:50:00.063Z,25.20
2022-07-26T07:52:50.261Z,25.30
2022-07-26T07:55:41.543Z,25.40
2022-07-26T07:58:32.708Z,25.50
2022-07-26T08:01:21.257Z,25.60
2022-07-26T08:04:09.929Z,25.70
2022-07-26T08:06:58.788Z,25.70
2022-07-26T08:09:48.724Z,25.70
2022-07-26T08:12:37.228Z,25.70
2022-07-26T08:15:27.385Z,25.80
2022-07-26T08:18:15.870Z,25.80
2022-07-26T08:21:05.399Z,25.80
2022-07-26T08:23:53.897Z,25.80
2022-07-26T08:26:43.731Z,25.70
2022-07-26T08:29:32.247Z,25.70
2022-07-26T08:32:20.727Z,25.60
2022-07-26T08:35:18.037Z,25.70
2022-07-26T08:38:08.597Z,25.80
2022-07-26T08:40:57.081Z,25.80
2022-07-26T08:43:52.181Z,25.90
2022-07-26T08:46:42.879Z,26.00
2022-07-26T08:49:31.495Z,26.10
2022-07-26T08:52:20.038Z,26.10
2022-07-26T08:55:10.466Z,26.20
2022-07-26T08:57:59.124Z,26.30
2022-07-26T09:00:49.175Z,26.50
2022-07-26T09:03:38.712Z,26.60
2022-07-26T09:06:28.421Z,26.70
2022-07-26T09:09:17.035Z,26.80
2022-07-26T09:12:17.395Z,26.80
2022-07-26T09:15:07.866Z,26.80
2022-07-26T09:17:58.601Z,26.80
2022-07-26T09:20:48.152Z,26.70
2022-07-26T09:23:41.212Z,26.70
2022-07-26T09:26:29.717Z,26.60
2022-07-26T09:29:18.291Z,26.60
2022-07-26T09:32:17.205Z,26.50
2022-07-26T09:35:44.654Z,26.50
2022-07-26T09:38:24.700Z,26.40
2022-07-26T09:41:21.021Z,26.30
2022-07-26T09:44:22.448Z,26.30
2022-07-26T09:47:10.935Z,26.30
2022-07-26T09:50:13.680Z,26.30
2022-07-26T09:53:07.360Z,26.30
2022-07-26T09:55:57.260Z,26.30
2022-07-26T09:58:45.816Z,26.40
2022-07-26T10:01:34.406Z,26.40
2022-07-26T10:04:23.315Z,26.50
2022-07-26T10:07:13.258Z,26.50
2022-07-26T10:10:06.069Z,26.70
2022-07-26T10:12:54.689Z,26.80
2022-07-26T10:15:46.944Z,26.90
2022-07-26T10:18:47.226Z,27.00
2022-07-26T10:21:35.739Z,27.10
2022-07-26T10:24:28.511Z,27.10
2022-07-26T10:27:37.845Z,27.10
2022-07-26T10:30:34.133Z,27.10
2022-07-26T10:33:24.843Z,27.10
2022-07-26T10:36:23.895Z,27.20
2022-07-26T10:39:16.589Z,27.30
2022-07-26T10:42:07.617Z,27.40
2022-07-26T10:44:56.143Z,27.50
2022-07-26T10:48:10.818Z,27.60
2022-07-26T10:51:05.898Z,27.70
2022-07-26T10:54:01.375Z,27.70
2022-07-26T10:56:49.976Z,27.70
2022-07-26T10:59:55.319Z,27.70
2022-07-26T11:02:44.757Z,27.80
2022-07-26T11:05:34.937Z,27.90
2022-07-26T11:08:30.340Z,28.00
2022-07-26T11:11:30.571Z,28.20
2022-07-26T11:14:19.695Z,28.40
2022-07-26T11:17:10.165Z,28.50
2022-07-26T11:19:58.876Z,28.70
2022-07-26T11:22:47.395Z,28.80
2022-07-26T11:25:35.874Z,28.90
2022-07-26T11:28:26.493Z,28.80
2022-07-26T11:31:15.104Z,28.90
2022-07-26T11:34:06.636Z,28.90
2022-07-26T11:37:00.862Z,28.90
2022-07-26T11:39:49.333Z,29.00
2022-07-26T11:42:37.913Z,29.10
2022-07-26T11:45:26.455Z,29.20
2022-07-26T11:48:14.991Z,29.40
2022-07-26T11:51:12.459Z,29.50
2022-07-26T11:54:04.650Z,29.50
2022-07-26T11:56:54.919Z,29.60
2022-07-26T11:59:44.697Z,29.60
2022-07-26T12:02:33.166Z,29.50
2022-07-26T12:05:23.802Z,29.50
2022-07-26T12:08:13.789Z,29.40
2022-07-26T12:11:02.316Z,29.30
2022-07-26T12:13:55.256Z,29.30
2022-07-26T12:16:45.672Z,29.30
2022-07-26T12:19:34.246Z,29.20
2022-07-26T12:22:23.642Z,29.20
2022-07-26T12:25:13.563Z,29.20
2022-07-26T12:28:02.080Z,29.30
2022-07-26T12:30:50.630Z,29.50
2022-07-26T12:33:49.137Z,29.50
2022-07-26T12:36:37.657Z,29.60
2022-07-26T12:39:26.187Z,29.60
2022-07-26T12:42:33.249Z,29.50
2022-07-26T12:45:23.859Z,29.50
2022-07-26T12:48:12.632Z,29.40
2022-07-26T12:51:01.111Z,29.40
2022-07-26T12:53:49.604Z,29.30
2022-07-26T12:56:38.106Z,29.20
2022-07-26T12:59:29.248Z,29.10
2022-07-26T13:02:19.195Z,29.10
2022-07-26T13:05:08.961Z,29.20
2022-07-26T13:07:57.649Z,29.30
2022-07-26T13:10:46.140Z,29.40
2022-07-26T13:13:34.691Z,29.50
2022-07-26T13:16:24.632Z,29.50
2022-07-26T13:19:13.245Z,29.60
2022-07-26T13:22:02.048Z,29.60
2022-07-26T13:24:50.513Z,29.70
2022-07-26T13:27:44.311Z,29.70
2022-07-26T13:30:33.416Z,29.70
2022-07-26T13:33:23.414Z,29.80
2022-07-26T13:36:11.952Z,29.70
2022-07-26T13:39:00.466Z,29.70
2022-07-26T13:41:48.985Z,29.70
2022-07-26T13:44:38.488Z,29.60
2022-07-26T13:47:27.008Z,29.60
2022-07-26T13:50:16.907Z,29.60
2022-07-26T13:53:05.906Z,29.60
2022-07-26T13:55:54.427Z,29.60
2022-07-26T13:58:42.905Z,29.60
2022-07-26T14:01:44.690Z,29.60
2022-07-26T14:04:34.670Z,29.70
2022-07-26T14:07:24.669Z,29.80
2022-07-26T14:10:13.147Z,29.80
2022-07-26T14:13:01.652Z,29.80
2022-07-26T14:15:50.127Z,29.80
2022-07-26T14:18:38.669Z,29.90
2022-07-26T14:21:27.202Z,29.90
2022-07-26T14:24:17.095Z,29.90
2022-07-26T14:27:09.398Z,30.00
2022-07-26T14:29:58.984Z,30.00
2022-07-26T14:35:00.214Z,30.10
2022-07-26T14:37:48.696Z,30.10
2022-07-26T14:40:37.502Z,30.10
2022-07-26T14:43:26.866Z,30.00
2022-07-26T14:46:15.520Z,30.00
2022-07-26T14:49:04.108Z,30.00
2022-07-26T14:51:55.141Z,30.00
2022-07-26T14:54:43.893Z,30.00
2022-07-26T14:57:32.435Z,30.10
2022-07-26T15:00:20.968Z,30.20
2022-07-26T15:03:10.963Z,30.20
2022-07-26T15:05:59.568Z,30.20
2022-07-26T15:08:49.377Z,30.30
2022-07-26T15:11:37.841Z,30.40
2022-07-26T15:14:26.355Z,30.50
2022-07-26T15:17:16.096Z,30.60
2022-07-26T15:20:05.746Z,30.60
2022-07-26T15:22:54.594Z,30.70
2022-07-26T15:25:44.573Z,30.60
2022-07-26T15:28:33.184Z,30.60
2022-07-26T15:31:22.206Z,30.60
2022-07-26T15:34:11.679Z,30.50
2022-07-26T15:37:00.478Z,30.60
2022-07-26T15:39:48.951Z,30.60
2022-07-26T15:42:43.429Z,30.60
2022-07-26T15:45:33.363Z,30.60
2022-07-26T15:48:22.739Z,30.60
2022-07-26T15:51:11.315Z,30.60
2022-07-26T15:53:59.845Z,30.60
2022-07-26T15:56:48.389Z,30.60
2022-07-26T15:59:38.218Z,30.50
2022-07-26T16:02:26.798Z,30.50
2022-07-26T16:05:15.353Z,30.40
2022-07-26T16:08:03.947Z,30.40
2022-07-26T16:10:52.505Z,30.40
2022-07-26T16:13:40.979Z,30.50
2022-07-26T16:16:30.975Z,30.40
2022-07-26T16:19:19.491Z,30.40
2022-07-26T16:22:08.265Z,30.40
2022-07-26T16:24:57.944Z,30.40
2022-07-26T16:27:46.510Z,30.30
2022-07-26T16:30:36.859Z,30.30
2022-07-26T16:33:26.953Z,30.20
2022-07-26T16:36:15.489Z,30.20
2022-07-26T16:39:04.070Z,30.20
2022-07-26T16:41:52.713Z,30.20
2022-07-26T16:44:41.292Z,30.20
2022-07-26T16:47:29.769Z,30.00
2022-07-26T16:50:27.287Z,30.20
2022-07-26T16:53:16.550Z,30.20
2022-07-26T16:56:05.382Z,30.30
2022-07-26T16:58:53.927Z,30.30
2022-07-26T17:01:42.501Z,30.40
2022-07-26T17:04:31.024Z,30.40
2022-07-26T17:07:25.458Z,30.50
2022-07-26T17:10:14.629Z,30.50
2022-07-26T17:13:03.119Z,30.50
2022-07-26T17:15:51.665Z,30.50
2022-07-26T17:18:40.208Z,30.50
2022-07-26T17:21:28.690Z,30.40
2022-07-26T17:24:18.513Z,30.40
2022-07-26T17:27:09.595Z,30.30
2022-07-26T17:29:59.884Z,30.40
2022-07-26T17:32:52.224Z,30.20
2022-07-26T17:35:40.826Z,30.30
2022-07-26T17:38:29.340Z,30.20
2022-07-26T17:41:20.180Z,30.20
2022-07-26T17:44:09.576Z,30.20
2022-07-26T17:46:58.621Z,30.20
2022-07-26T17:49:47.215Z,30.10
2022-07-26T17:52:36.051Z,30.00
2022-07-26T17:55:24.785Z,29.90
2022-07-26T17:58:14.678Z,29.80
2022-07-26T18:01:03.157Z,29.60
2022-07-26T18:03:51.675Z,29.50
2022-07-26T18:06:40.186Z,29.30
2022-07-26T18:09:28.625Z,29.20
2022-07-26T18:12:17.130Z,29.00
2022-07-26T18:15:08.709Z,28.90
2022-07-26T18:17:57.201Z,28.80
2022-07-26T18:20:45.800Z,28.70
2022-07-26T18:23:34.300Z,28.50
2022-07-26T18:26:24.052Z,28.40
2022-07-26T18:29:12.936Z,28.30
2022-07-26T18:32:03.028Z,28.20
2022-07-26T18:34:52.615Z,28.20
2022-07-26T18:37:41.248Z,28.00
2022-07-26T18:40:29.734Z,28.00
2022-07-26T18:43:18.234Z,27.80
2022-07-26T18:46:06.812Z,27.80
2022-07-26T18:48:56.687Z,27.70
2022-07-26T18:51:45.757Z,27.60
2022-07-26T18:54:37.418Z,27.40
2022-07-26T18:57:25.908Z,27.30
2022-07-26T19:00:16.849Z,27.20
2022-07-26T19:03:05.372Z,27.10
2022-07-26T19:05:55.229Z,27.10
2022-07-26T19:08:43.725Z,27.00
2022-07-26T19:11:33.057Z,27.00
2022-07-26T19:14:26.301Z,27.00
2022-07-26T19:17:14.782Z,26.90
2022-07-26T19:20:03.367Z,26.90
2022-07-26T19:22:53.371Z,26.90
2022-07-26T19:25:42.249Z,26.90
2022-07-26T19:28:30.778Z,26.90
2022-07-26T19:31:19.332Z,26.90
2022-07-26T19:34:07.894Z,26.90
2022-07-26T19:36:56.451Z,26.90
2022-07-26T19:39:46.293Z,26.90
2022-07-26T19:42:34.798Z,26.90
2022-07-26T19:45:23.531Z,27.00
2022-07-26T19:48:12.112Z,27.00
2022-07-26T19:51:00.695Z,27.00
2022-07-26T19:53:49.195Z,27.00
2022-07-26T19:56:39.963Z,27.00
2022-07-26T19:59:28.478Z,27.00
2022-07-26T20:02:17.177Z,27.00
2022-07-26T20:05:07.023Z,27.00
2022-07-26T20:07:55.538Z,27.00
2022-07-26T20:10:44.117Z,27.00
2022-07-26T20:13:34.043Z,27.00
2022-07-26T20:16:23.989Z,27.10
2022-07-26T20:19:12.889Z,27.00
2022-07-26T20:22:01.718Z,27.10
2022-07-26T20:24:55.071Z,27.00
2022-07-26T20:27:45.520Z,27.00
2022-07-26T20:30:35.410Z,27.00
2022-07-26T20:33:25.305Z,27.00
2022-07-26T20:36:13.823Z,27.00
2022-07-26T20:39:02.596Z,27.00
2022-07-26T20:41:51.105Z,27.00
2022-07-26T20:44:41.346Z,26.90
2022-07-26T20:47:31.227Z,26.90
2022-07-26T20:50:19.803Z,26.90
2022-07-26T20:53:08.345Z,26.90
2022-07-26T20:55:59.355Z,26.90
2022-07-26T20:58:47.850Z,26.80
2022-07-26T21:01:36.521Z,26.80
2022-07-26T21:04:26.543Z,26.80
2022-07-26T21:07:15.124Z,26.70
2022-07-26T21:10:03.599Z,26.70
2022-07-26T21:12:52.933Z,26.70
2022-07-26T21:15:42.390Z,26.60
2022-07-26T21:18:31.252Z,26.60
2022-07-26T21:21:21.313Z,26.50
2022-07-26T21:24:10.451Z,26.50
2022-07-26T21:26:59.697Z,26.50
2022-07-26T21:29:48.222Z,26.50
2022-07-26T21:32:36.750Z,26.40
2022-07-26T21:35:25.207Z,26.40
2022-07-26T21:38:15.033Z,26.30
2022-07-26T21:41:03.574Z,26.30
2022-07-26T21:43:52.093Z,26.30
2022-07-26T21:46:40.680Z,26.20
2022-07-26T21:49:29.259Z,26.20
2022-07-26T21:52:17.952Z,26.10
2022-07-26T21:55:09.288Z,26.10
2022-07-26T21:57:57.801Z,26.10
2022-07-26T22:00:46.322Z,26.10
2022-07-26T22:03:36.222Z,26.10
2022-07-26T22:06:24.680Z,26.10
2022-07-26T22:09:14.062Z,26.10
2022-07-26T22:12:04.247Z,26.00
2022-07-26T22:14:53.147Z,26.00
2022-07-26T22:17:41.674Z,25.90
2022-07-26T22:20:31.835Z,25.90
2022-07-26T22:23:20.345Z,25.90
2022-07-26T22:26:08.833Z,25.80
2022-07-26T22:28:58.922Z,25.80
2022-07-26T22:31:47.484Z,25.70
2022-07-26T22:34:36.088Z,25.60
2022-07-26T22:37:24.659Z,25.60
2022-07-26T22:40:14.095Z,25.50
2022-07-26T22:43:02.553Z,25.40
2022-07-26T22:45:52.453Z,25.30
2022-07-26T22:48:45.964Z,25.30
2022-07-26T22:51:36.408Z,25.20
2022-07-26T22:54:24.863Z,25.10
2022-07-26T22:57:13.366Z,25.10
2022-07-26T23:00:01.848Z,25.00
2022-07-26T23:02:51.689Z,24.90
2022-07-26T23:05:46.433Z,24.80
2022-07-26T23:08:47.204Z,24.70
2022-07-26T23:11:36.300Z,24.60
2022-07-26T23:14:24.826Z,24.50
2022-07-26T23:17:13.376Z,24.40
2022-07-26T23:20:03.216Z,24.30
2022-07-26T23:22:51.697Z,24.20
2022-07-26T23:25:40.146Z,24.10
2022-07-26T23:28:35.571Z,24.10
2022-07-26T23:31:26.353Z,24.00
2022-07-26T23:34:14.987Z,23.90
2022-07-26T23:37:04.835Z,23.80
2022-07-26T23:39:53.340Z,23.70
2022-07-26T23:42:41.851Z,23.60
2022-07-26T23:45:30.376Z,23.50
2022-07-26T23:48:18.983Z,23.40
2022-07-26T23:51:07.454Z,23.30
2022-07-26T23:53:57.289Z,23.20
2022-07-26T23:56:46.151Z,23.20
2022-07-26T23:59:35.149Z,23.10
